createdAt,value
2023-02-24T00:00:47.412Z,129.73
2023-02-24T00:03:15.134Z,128.68
2023-02-24T00:05:44.600Z,140.45
2023-02-24T00:08:12.162Z,128.90
2023-02-24T00:10:39.742Z,127.78
2023-02-24T00:13:07.638Z,131.60
2023-02-24T00:15:35.593Z,129.88
2023-02-24T00:18:07.302Z,129.98
2023-02-24T00:20:35.001Z,142.60
2023-02-24T00:23:02.501Z,138.70
2023-02-24T00:25:29.921Z,130.07
2023-02-24T00:28:01.644Z,124.60
2023-02-24T00:30:31.552Z,128.13
2023-02-24T00:33:01.443Z,130.77
2023-02-24T00:35:31.596Z,122.38
2023-02-24T00:37:59.588Z,129.68
2023-02-24T00:40:27.656Z,135.05
2023-02-24T00:42:58.265Z,126.50
2023-02-24T00:45:25.783Z,137.60
2023-02-24T00:47:53.263Z,132.48
2023-02-24T00:50:20.826Z,123.70
2023-02-24T00:52:48.745Z,129.95
2023-02-24T00:55:16.349Z,130.98
2023-02-24T00:57:45.368Z,122.35
2023-02-24T01:00:15.192Z,124.60
2023-02-24T01:02:45.179Z,121.13
2023-02-24T01:05:13.258Z,127.35
2023-02-24T01:07:40.703Z,134.05
2023-02-24T01:10:08.826Z,142.18
2023-02-24T01:12:39.187Z,134.20
2023-02-24T01:15:10.106Z,125.03
2023-02-24T01:17:40.055Z,133.57
2023-02-24T01:20:16.664Z,142.48
2023-02-24T01:22:49.713Z,146.10
2023-02-24T01:25:17.948Z,131.05
2023-02-24T01:27:45.362Z,138.30
2023-02-24T01:30:16.450Z,139.27
2023-02-24T01:32:44.749Z,130.30
2023-02-24T01:35:12.631Z,122.72
2023-02-24T01:37:40.141Z,130.65
2023-02-24T01:40:18.966Z,132.68
2023-02-24T01:42:47.902Z,133.82
2023-02-24T01:45:21.638Z,130.18
2023-02-24T01:47:50.016Z,146.45
2023-02-24T01:50:21.941Z,139.40
2023-02-24T01:52:53.081Z,149.45
2023-02-24T01:55:25.555Z,139.35
2023-02-24T01:57:54.693Z,137.73
2023-02-24T02:00:34.060Z,132.38
2023-02-24T02:03:08.489Z,130.18
2023-02-24T02:05:39.679Z,125.05
2023-02-24T02:08:09.323Z,134.75
2023-02-24T02:10:40.958Z,128.68
2023-02-24T02:13:08.667Z,123.68
2023-02-24T02:15:46.978Z,129.68
2023-02-24T02:18:22.062Z,129.32
2023-02-24T02:20:55.889Z,120.10
2023-02-24T02:23:35.563Z,123.05
2023-02-24T02:26:22.173Z,135.88
2023-02-24T02:28:49.690Z,122.57
2023-02-24T02:31:51.898Z,133.35
2023-02-24T02:34:45.450Z,129.45
2023-02-24T02:37:20.296Z,127.10
2023-02-24T02:40:00.210Z,128.20
2023-02-24T02:42:49.325Z,127.75
2023-02-24T02:45:41.858Z,133.75
2023-02-24T02:48:36.078Z,131.25
2023-02-24T02:51:24.673Z,133.20
2023-02-24T02:54:08.026Z,136.55
2023-02-24T02:56:52.928Z,128.40
2023-02-24T03:01:55.794Z,120.60
2023-02-24T03:04:26.679Z,119.70
2023-02-24T03:07:00.884Z,125.28
2023-02-24T03:09:32.533Z,121.28
2023-02-24T03:12:05.326Z,134.38
2023-02-24T03:14:40.400Z,124.63
2023-02-24T03:17:16.335Z,127.28
2023-02-24T03:19:46.647Z,124.68
2023-02-24T03:22:25.459Z,121.97
2023-02-24T03:24:53.544Z,136.80
2023-02-24T03:27:31.862Z,123.22
2023-02-24T03:30:07.519Z,131.50
2023-02-24T03:32:44.239Z,136.65
2023-02-24T03:35:21.798Z,123.68
2023-02-24T03:37:55.361Z,130.32
2023-02-24T03:40:30.770Z,131.32
2023-02-24T03:43:25.792Z,114.85
2023-02-24T03:45:55.882Z,125.43
2023-02-24T03:48:27.228Z,131.45
2023-02-24T03:50:56.776Z,130.45
2023-02-24T03:54:13.319Z,133.10
2023-02-24T03:57:01.853Z,127.05
2023-02-24T03:59:52.961Z,126.15
2023-02-24T04:02:26.151Z,125.40
2023-02-24T04:05:12.193Z,138.07
2023-02-24T04:08:13.473Z,136.63
2023-02-24T04:10:52.632Z,147.25
2023-02-24T04:13:35.351Z,146.30
2023-02-24T04:16:30.038Z,140.88
2023-02-24T04:19:03.688Z,139.32
2023-02-24T04:21:33.585Z,142.55
2023-02-24T04:24:08.617Z,143.02
2023-02-24T04:26:40.881Z,150.02
2023-02-24T04:29:13.995Z,149.10
2023-02-24T04:31:41.773Z,157.73
2023-02-24T04:34:09.882Z,148.73
2023-02-24T04:36:42.021Z,147.75
2023-02-24T04:39:17.106Z,145.95
2023-02-24T04:41:49.501Z,139.00
2023-02-24T04:44:18.483Z,137.50
2023-02-24T04:46:47.184Z,138.70
2023-02-24T04:49:15.009Z,137.85
2023-02-24T04:51:42.681Z,145.68
2023-02-24T04:54:17.473Z,166.05
2023-02-24T04:56:47.973Z,152.73
2023-02-24T04:59:15.913Z,138.75
2023-02-24T05:01:44.496Z,139.25
2023-02-24T05:04:17.692Z,133.75
2023-02-24T05:06:45.863Z,148.38
2023-02-24T05:09:22.637Z,152.90
2023-02-24T05:11:53.380Z,147.00
2023-02-24T05:14:21.641Z,144.90
2023-02-24T05:16:50.321Z,148.43
2023-02-24T05:19:49.248Z,146.52
2023-02-24T05:22:17.822Z,138.75
2023-02-24T05:24:49.870Z,144.27
2023-02-24T05:27:17.556Z,131.35
2023-02-24T05:29:45.227Z,152.82
2023-02-24T05:32:13.329Z,143.02
2023-02-24T05:34:42.788Z,146.63
2023-02-24T05:37:10.906Z,140.60
2023-02-24T05:39:38.514Z,152.50
2023-02-24T05:42:07.223Z,148.70
2023-02-24T05:44:35.763Z,159.85
2023-02-24T05:47:05.635Z,143.05
2023-02-24T05:49:38.918Z,154.10
2023-02-24T05:52:10.126Z,142.38
2023-02-24T05:54:43.999Z,143.50
2023-02-24T05:57:15.452Z,156.25
2023-02-24T05:59:44.742Z,142.15
2023-02-24T06:02:14.904Z,135.93
2023-02-24T06:04:51.621Z,149.45
2023-02-24T06:07:24.915Z,144.10
2023-02-24T06:09:56.756Z,154.05
2023-02-24T06:12:33.827Z,136.10
2023-02-24T06:15:07.592Z,143.52
2023-02-24T06:17:35.661Z,135.02
2023-02-24T06:20:13.624Z,133.82
2023-02-24T06:22:42.622Z,138.63
2023-02-24T06:25:12.075Z,120.43
2023-02-24T06:27:39.873Z,127.45
2023-02-24T06:30:11.424Z,124.07
2023-02-24T06:32:39.155Z,123.60
2023-02-24T06:35:07.037Z,132.32
2023-02-24T06:37:35.848Z,135.52
2023-02-24T06:40:09.145Z,116.85
2023-02-24T06:42:36.722Z,135.48
2023-02-24T06:45:07.009Z,132.65
2023-02-24T06:47:35.429Z,129.25
2023-02-24T06:50:06.625Z,148.70
2023-02-24T06:52:34.735Z,131.10
2023-02-24T06:55:25.372Z,129.15
2023-02-24T06:58:04.613Z,138.77
2023-02-24T07:00:42.967Z,139.70
2023-02-24T07:03:15.259Z,141.13
2023-02-24T07:05:50.345Z,133.52
2023-02-24T07:08:21.147Z,133.45
2023-02-24T07:10:57.032Z,126.38
2023-02-24T07:13:25.660Z,125.53
2023-02-24T07:15:53.146Z,118.47
2023-02-24T07:18:20.676Z,119.07
2023-02-24T07:20:49.411Z,120.45
2023-02-24T07:23:17.615Z,114.10
2023-02-24T07:25:46.456Z,119.43
2023-02-24T07:28:14.561Z,122.68
2023-02-24T07:30:42.435Z,138.73
2023-02-24T07:33:10.727Z,136.05
2023-02-24T07:35:41.515Z,132.15
2023-02-24T07:38:09.588Z,145.80
2023-02-24T07:40:37.032Z,128.95
2023-02-24T07:43:06.490Z,136.25
2023-02-24T07:45:34.382Z,131.88
2023-02-24T07:48:01.872Z,129.65
2023-02-24T07:50:32.819Z,131.93
2023-02-24T07:53:03.994Z,120.38
2023-02-24T07:55:35.939Z,127.45
2023-02-24T07:58:06.036Z,133.05
2023-02-24T08:00:55.192Z,131.45
2023-02-24T08:03:23.953Z,135.52
2023-02-24T08:05:53.873Z,125.47
2023-02-24T08:08:25.678Z,135.88
2023-02-24T08:11:04.331Z,125.55
2023-02-24T08:13:37.904Z,124.70
2023-02-24T08:16:06.024Z,133.48
2023-02-24T08:18:37.417Z,132.50
2023-02-24T08:21:04.987Z,129.98
2023-02-24T08:23:40.583Z,129.55
2023-02-24T08:26:12.793Z,132.93
2023-02-24T08:29:09.654Z,121.30
2023-02-24T08:36:02.413Z,128.13
2023-02-24T08:38:44.782Z,125.40
2023-02-24T08:41:21.382Z,122.93
2023-02-24T08:43:49.345Z,129.38
2023-02-24T08:46:21.464Z,136.57
2023-02-24T08:48:55.748Z,123.55
2023-02-24T08:51:30.341Z,121.93
2023-02-24T08:56:29.617Z,122.93
2023-02-24T08:59:05.903Z,130.60
2023-02-24T09:01:39.679Z,123.03
2023-02-24T09:04:11.008Z,129.07
2023-02-24T09:06:43.375Z,128.88
2023-02-24T09:09:19.393Z,122.53
2023-02-24T09:11:49.520Z,117.05
2023-02-24T09:14:27.046Z,126.82
2023-02-24T09:17:05.540Z,123.32
2023-02-24T09:19:47.412Z,131.13
2023-02-24T09:22:57.846Z,124.95
2023-02-24T09:25:40.960Z,122.93
2023-02-24T09:28:09.922Z,125.28
2023-02-24T09:30:51.002Z,119.15
2023-02-24T09:33:27.712Z,125.47
2023-02-24T09:36:20.357Z,119.15
2023-02-24T09:39:01.612Z,133.93
2023-02-24T09:42:04.446Z,124.70
2023-02-24T09:44:44.973Z,127.65
2023-02-24T09:47:20.018Z,118.05
2023-02-24T09:49:58.677Z,120.93
2023-02-24T09:52:43.100Z,114.75
2023-02-24T09:55:35.895Z,116.72
2023-02-24T09:58:17.146Z,127.32
2023-02-24T10:01:22.384Z,129.50
2023-02-24T10:06:24.682Z,126.97
2023-02-24T10:09:11.737Z,129.07
2023-02-24T10:11:53.556Z,133.55
2023-02-24T10:14:42.622Z,133.02
2023-02-24T10:17:24.294Z,136.63
2023-02-24T10:20:13.916Z,135.38
2023-02-24T10:22:52.394Z,131.90
2023-02-24T10:25:41.535Z,130.32
2023-02-24T10:28:59.021Z,127.40
2023-02-24T10:31:48.163Z,122.65
2023-02-24T10:34:26.442Z,137.10
2023-02-24T10:36:57.525Z,121.72
2023-02-24T10:39:26.105Z,135.85
2023-02-24T10:41:57.890Z,124.55
2023-02-24T10:44:36.058Z,127.03
2023-02-24T10:47:13.194Z,120.72
2023-02-24T10:49:58.213Z,127.03
2023-02-24T10:52:50.342Z,113.07
2023-02-24T10:55:28.410Z,126.22
2023-02-24T10:58:06.811Z,118.13
2023-02-24T11:01:03.809Z,118.47
2023-02-24T11:03:43.656Z,113.18
2023-02-24T11:06:40.534Z,124.57
2023-02-24T11:09:29.208Z,121.53
2023-02-24T11:12:28.580Z,118.72
2023-02-24T11:15:17.623Z,105.40
2023-02-24T11:17:57.184Z,112.47
2023-02-24T11:20:48.053Z,124.72
2023-02-24T11:23:30.502Z,119.15
2023-02-24T11:26:24.513Z,116.90
2023-02-24T11:29:00.926Z,107.70
2023-02-24T11:32:03.178Z,117.00
2023-02-24T11:35:04.440Z,111.20
2023-02-24T11:37:45.101Z,110.32
2023-02-24T11:40:26.939Z,119.97
2023-02-24T11:43:01.370Z,100.47
2023-02-24T13:09:04.653Z,84.10
2023-02-24T13:11:40.476Z,82.07
2023-02-24T13:14:46.531Z,82.85
2023-02-24T13:17:16.650Z,91.00
2023-02-24T13:19:45.092Z,86.32
2023-02-24T13:22:42.789Z,78.22
2023-02-24T13:25:21.593Z,76.93
2023-02-24T13:28:06.039Z,83.22
2023-02-24T13:30:44.246Z,81.40
2023-02-24T13:33:24.927Z,81.30
2023-02-24T13:36:10.739Z,86.88
2023-02-24T13:38:40.920Z,92.32
2023-02-24T13:41:32.266Z,86.10
2023-02-24T13:44:01.380Z,88.00
2023-02-24T13:46:58.738Z,85.38
2023-02-24T13:49:36.214Z,83.53
2023-02-24T13:52:32.664Z,88.82
2023-02-24T13:55:14.629Z,86.63
2023-02-24T13:58:17.468Z,83.55
2023-02-24T14:01:06.776Z,88.70
2023-02-24T14:03:50.196Z,85.43
2023-02-24T14:06:26.449Z,88.65
2023-02-24T14:09:06.373Z,90.50
2023-02-24T14:11:37.786Z,85.60
2023-02-24T14:14:05.853Z,74.03
2023-02-24T14:16:46.087Z,75.78
2023-02-24T14:19:32.280Z,77.80
2023-02-24T14:22:03.925Z,70.75
2023-02-24T14:24:42.837Z,75.40
2023-02-24T14:27:33.149Z,73.25
2023-02-24T14:30:00.775Z,69.45
2023-02-24T14:32:31.775Z,68.18
2023-02-24T14:34:59.567Z,69.15
2023-02-24T14:37:30.519Z,72.80
2023-02-24T14:40:00.074Z,65.45
2023-02-24T14:42:28.978Z,60.10
2023-02-24T14:44:58.324Z,62.92
2023-02-24T14:47:28.906Z,63.13
2023-02-24T14:50:02.771Z,74.07
2023-02-24T14:52:59.299Z,73.90
2023-02-24T14:55:31.246Z,68.70
2023-02-24T14:58:14.259Z,68.00
2023-02-24T15:00:47.937Z,64.60
2023-02-24T15:03:24.366Z,69.03
2023-02-24T15:05:57.730Z,70.00
2023-02-24T15:08:30.581Z,74.10
2023-02-24T15:10:59.074Z,62.50
2023-02-24T15:13:58.325Z,71.90
2023-02-24T15:16:33.772Z,67.50
2023-02-24T15:19:01.954Z,67.82
2023-02-24T15:21:43.034Z,70.20
2023-02-24T15:24:31.300Z,69.60
2023-02-24T15:27:14.044Z,73.28
2023-02-24T15:29:43.399Z,66.80
2023-02-24T15:32:21.665Z,72.18
2023-02-24T15:34:49.414Z,68.00
2023-02-24T15:37:45.376Z,66.40
2023-02-24T15:40:18.970Z,66.65
2023-02-24T15:42:50.803Z,72.70
2023-02-24T15:45:29.544Z,70.35
2023-02-24T15:48:00.421Z,69.70
2023-02-24T15:50:30.047Z,68.28
2023-02-24T15:53:04.586Z,66.57
2023-02-24T15:55:32.820Z,76.30
2023-02-24T15:58:04.764Z,73.07
2023-02-24T16:00:32.506Z,74.22
2023-02-24T16:03:00.004Z,73.10
2023-02-24T16:05:27.585Z,79.50
2023-02-24T16:07:55.224Z,68.57
2023-02-24T16:10:28.298Z,68.18
2023-02-24T16:13:01.616Z,71.13
2023-02-24T16:15:37.992Z,75.18
2023-02-24T16:18:14.156Z,76.07
2023-02-24T16:20:41.848Z,72.97
2023-02-24T16:23:10.836Z,73.65
2023-02-24T16:25:42.852Z,76.70
2023-02-24T16:28:19.168Z,82.93
2023-02-24T16:30:48.422Z,74.15
2023-02-24T16:33:18.640Z,77.07
2023-02-24T16:35:46.458Z,73.88
2023-02-24T16:38:15.885Z,64.95
2023-02-24T16:40:46.497Z,76.93
2023-02-24T16:43:14.767Z,70.00
2023-02-24T16:45:45.122Z,80.00
2023-02-24T16:48:21.835Z,72.15
2023-02-24T16:50:49.750Z,76.93
2023-02-24T16:53:20.641Z,74.75
2023-02-24T16:55:48.667Z,84.40
2023-02-24T16:58:16.599Z,87.43
2023-02-24T17:00:46.536Z,81.20
2023-02-24T17:03:29.529Z,86.82
2023-02-24T17:05:57.823Z,83.32
2023-02-24T17:08:25.811Z,80.93
2023-02-24T17:10:53.748Z,81.28
2023-02-24T17:13:22.257Z,84.35
2023-02-24T17:17:59.216Z,90.85
2023-02-24T17:20:35.175Z,80.68
2023-02-24T17:23:26.154Z,80.13
2023-02-24T17:26:15.623Z,78.28
2023-02-24T17:29:17.249Z,74.18
2023-02-24T17:46:11.921Z,94.47
2023-02-24T17:48:44.944Z,94.78
2023-02-24T17:51:19.878Z,96.35
2023-02-24T17:53:52.574Z,93.03
2023-02-24T17:57:19.846Z,84.32
2023-02-24T18:07:35.154Z,83.13
2023-02-24T18:10:28.304Z,80.18
2023-02-24T18:13:15.206Z,80.22
2023-02-24T18:25:25.960Z,84.28
2023-02-24T18:28:22.466Z,82.40
2023-02-24T18:31:23.845Z,81.22
2023-02-24T18:34:01.417Z,77.88
2023-02-24T18:36:29.129Z,86.15
2023-02-24T18:38:58.004Z,76.80
2023-02-24T18:41:25.962Z,78.03
2023-02-24T18:43:56.737Z,80.28
2023-02-24T18:46:26.461Z,78.53
2023-02-24T18:48:56.120Z,78.88
2023-02-24T18:51:29.187Z,77.63
2023-02-24T18:54:02.947Z,77.10
2023-02-24T18:56:33.012Z,79.00
2023-02-24T18:59:02.497Z,76.72
2023-02-24T19:01:39.122Z,75.60
2023-02-24T19:04:08.644Z,76.15
2023-02-24T19:06:37.047Z,81.40
2023-02-24T19:09:10.568Z,78.25
2023-02-24T19:11:39.769Z,75.85
2023-02-24T19:14:08.533Z,75.25
2023-02-24T19:16:38.031Z,77.93
2023-02-24T19:19:05.705Z,80.10
2023-02-24T19:21:33.804Z,80.80
2023-02-24T19:24:08.194Z,86.82
2023-02-24T19:29:04.568Z,74.18
2023-02-24T19:31:33.555Z,87.10
2023-02-24T19:34:07.591Z,89.57
2023-02-24T19:36:36.798Z,86.55
2023-02-24T19:39:05.863Z,82.28
2023-02-24T19:41:34.465Z,82.90
2023-02-24T19:44:01.904Z,82.88
2023-02-24T19:46:34.398Z,88.57
2023-02-24T19:49:09.005Z,78.10
2023-02-24T19:51:36.809Z,95.20
2023-02-24T19:54:06.386Z,75.45
2023-02-24T19:56:39.102Z,86.45
2023-02-24T19:59:08.120Z,89.28
2023-02-24T20:01:35.714Z,89.70
2023-02-24T20:04:04.483Z,94.15
2023-02-24T20:06:38.916Z,89.63
2023-02-24T20:09:09.021Z,85.65
2023-02-24T20:11:39.224Z,91.35
2023-02-24T20:14:15.778Z,86.82
2023-02-24T20:16:46.022Z,83.10
2023-02-24T20:19:15.141Z,85.20
2023-02-24T20:21:42.664Z,80.97
2023-02-24T20:24:14.057Z,95.88
2023-02-24T20:26:43.719Z,87.57
2023-02-24T20:29:11.605Z,90.53
2023-02-24T20:31:40.542Z,85.97
2023-02-24T20:34:10.602Z,89.90
2023-02-24T20:36:38.712Z,96.35
2023-02-24T20:39:07.114Z,92.30
2023-02-24T20:41:34.587Z,89.88
2023-02-24T20:44:02.124Z,93.35
2023-02-24T20:46:31.556Z,98.00
2023-02-24T20:49:02.838Z,96.85
2023-02-24T20:51:32.186Z,88.15
2023-02-24T20:54:00.629Z,96.35
2023-02-24T20:56:33.118Z,91.45
2023-02-24T20:59:11.269Z,90.65
2023-02-24T21:01:39.488Z,96.45
2023-02-24T21:04:08.904Z,81.35
2023-02-24T21:06:37.244Z,96.55
2023-02-24T21:09:05.521Z,84.80
2023-02-24T21:11:33.860Z,84.55
2023-02-24T21:14:01.421Z,96.85
2023-02-24T21:16:28.938Z,89.03
2023-02-24T21:18:58.773Z,90.82
2023-02-24T21:21:26.832Z,85.38
2023-02-24T21:23:55.436Z,90.05
2023-02-24T21:26:27.670Z,94.88
2023-02-24T21:28:59.417Z,93.90
2023-02-24T21:31:27.771Z,92.50
2023-02-24T21:33:55.862Z,91.30
2023-02-24T21:36:25.992Z,90.05
2023-02-24T21:38:54.975Z,89.50
2023-02-24T21:41:23.754Z,92.90
2023-02-24T21:43:55.559Z,92.70
2023-02-24T21:46:28.458Z,92.90
2023-02-24T21:48:57.996Z,89.80
2023-02-24T21:51:27.274Z,94.63
2023-02-24T21:53:55.463Z,94.45
2023-02-24T21:56:25.902Z,91.78
2023-02-24T21:58:58.803Z,93.43
2023-02-24T22:01:38.736Z,88.20
2023-02-24T22:04:19.067Z,95.20
2023-02-24T22:06:46.854Z,93.03
2023-02-24T22:09:25.682Z,92.93
2023-02-24T22:11:53.106Z,89.22
2023-02-24T22:14:21.397Z,97.38
2023-02-24T22:16:49.144Z,93.35
2023-02-24T22:19:19.084Z,97.32
2023-02-24T22:21:46.570Z,96.18
2023-02-24T22:24:16.350Z,92.90
2023-02-24T22:26:44.726Z,85.68
2023-02-24T22:29:12.314Z,92.53
2023-02-24T22:31:43.594Z,86.68
2023-02-24T22:34:12.405Z,102.57
2023-02-24T22:36:39.976Z,96.18
2023-02-24T22:39:09.052Z,96.00
2023-02-24T22:41:37.784Z,89.72
2023-02-24T22:44:08.630Z,88.60
2023-02-24T22:46:38.490Z,89.90
2023-02-24T22:49:06.510Z,88.55
2023-02-24T22:51:34.242Z,89.25
2023-02-24T22:54:01.843Z,94.22
2023-02-24T22:56:30.123Z,90.15
2023-02-24T22:58:59.215Z,90.28
2023-02-24T23:01:37.507Z,82.80
2023-02-24T23:04:16.223Z,85.38
2023-02-24T23:06:44.582Z,97.90
2023-02-24T23:09:13.371Z,87.97
2023-02-24T23:11:41.423Z,89.03
2023-02-24T23:14:13.823Z,93.50
2023-02-24T23:16:44.493Z,85.20
2023-02-24T23:19:16.348Z,80.82
2023-02-24T23:21:46.525Z,91.65
2023-02-24T23:24:15.627Z,101.63
2023-02-24T23:26:54.168Z,98.00
2023-02-24T23:29:25.073Z,91.07
2023-02-24T23:31:54.278Z,90.63
2023-02-24T23:34:58.539Z,96.90
2023-02-24T23:37:28.533Z,93.22
2023-02-24T23:39:56.621Z,100.72
2023-02-24T23:42:30.747Z,98.90
2023-02-24T23:58:05.956Z,99.53
